Alamo, Nevada Weather observations

Data are for observation ending at time listed.
 Day   Time    Ave.   Ave.  Ave.  Vector   Max.   Stn.    Total    Solar   Ave.  
  of    of     Air    Rel.  Wind   Wind    Wind   Baro.  Precip.   Rad.    Soil  
Year   Day     Temp.  Hum.  Speed  Dir.    Gust   Pres.                    Temp. 
2015   (PST)    F      %     mph   deg.    mph     mb.     in.     W/m2     F   
------------------------------------------------------------------------------
 117    2:50   45.8    38    5.7   290      9.1   899.3    0.00       0    50.9
 117    3:00   46.3    36    4.3   314     10.0   899.2    0.00       0    50.8
 117    3:10   46.2    37    5.7   310     11.7   899.2    0.00       0    50.6
 117    3:20   46.0    37    5.5   312     12.2   899.2    0.00       0    50.5
 117    3:30   46.3    36    5.6   322     10.6   899.2    0.00       0    50.4
 117    3:40   46.2    37    6.5   323     11.0   899.2    0.00       0    50.2
 117    3:50   45.6    38    5.8   315     11.7   899.2    0.00       0    50.1
 117    4:00   44.7    40    5.9   312     11.2   899.4    0.00       0    50.0
 117    4:10   45.1    39    6.5   312     11.7   899.4    0.00       0    49.9
 117    4:20   45.1    39    4.2   313      9.6   899.5    0.00       0    49.8
 117    4:30   44.6    40    0.8   125      3.5   900.0    0.00       0    49.7
 117    4:40   43.4    44    1.2   289      7.2   900.3    0.00       0    49.5
 117    4:50   44.1    42    3.1   327      8.3   900.4    0.00       0    49.4
 117    5:00   46.1    37    4.1   337      8.8   900.6    0.00       2    49.3
 117    5:10   46.0    38    3.7   316      8.6   900.7    0.00      10    49.2
 117    5:20   45.4    39    4.5   302     10.2   900.6    0.00      14    49.1
 117    5:30   45.4    39    6.2   289     11.2   900.5    0.00      16    49.0
 117    5:40   46.2    38    5.9   296     10.4   900.4    0.00      88    48.9
 117    5:50   47.7    36    6.7   299     12.9   900.3    0.00     137    48.9
 117    6:00   48.9    34    6.8   302     14.6   900.4    0.00     126    49.0
 117    6:10   49.5    34    6.9   298     13.4   900.5    0.00      56    49.2
 117    6:20   50.1    33    6.6   303     12.9   900.6    0.00      74    49.5
 117    6:30   50.8    32    6.0   312     11.9   900.7    0.00      60    49.9
 117    6:40   51.8    32    4.9   302     12.0   900.8    0.00     103    50.3
 117    6:50   52.6    30    5.2   324     10.6   900.9    0.00      79    50.5
 117    7:00   52.7    30    7.0   310     15.8   900.8    0.00      42    50.6
 117    7:10   53.2    29    6.3   321     12.9   900.8    0.00      41    50.7
 117    7:20   53.1    28    6.8   326     11.5   901.0    0.00      43    50.7
 117    7:30   53.4    29    6.1   321     13.2   901.0    0.00      58    50.7
 117    7:40   54.2    29    6.2   340     13.9   901.0    0.00      53    50.7
 117    7:50   54.9    28    6.6   338     13.7   901.0    0.00     207    50.8
 117    8:00   55.3    28    5.6   352     13.3   901.0    0.00     157    50.8
 117    8:10   55.9    27    7.3   333     13.7   900.9    0.00      42    50.9
 117    8:20   56.6    27    6.8   334     15.4   900.9    0.00      40    51.0
 117    8:30   57.2    27    8.0   347     15.8   900.8    0.00      41    51.0
 117    8:40   57.8    27    7.9   345     15.2   900.8    0.00      41    51.2
 117    8:50   58.2    26    7.4   356     13.9   900.8    0.00      42    51.3
 117    9:00   58.7    25    8.1   327     14.5   900.8    0.00      42    51.5
 117    9:10   59.7    25    6.9   334     13.9   900.8    0.00      65    51.6
 117    9:20   60.1    24    7.7   338     16.1   900.7    0.00      57    51.7
 117    9:30   60.5    24    7.8   346     14.9   900.6    0.00      56    51.9
 117    9:40   61.2    24    6.9   350     13.3   900.5    0.00     165    52.1
 117    9:50   61.6    24    5.7   337     12.4   900.5    0.00      68    52.3
 117   10:00   62.0    23    7.6     1     13.8   900.5    0.00      68    52.5
 117   10:10   62.7    23    7.2   320     15.1   900.3    0.00     118    52.7
 117   10:20   63.7    23    6.8   331     12.9   900.2    0.00     398    53.1
 117   10:30   64.1    22    7.1   348     13.7   900.2    0.00    1043    54.2
 117   10:40   64.3    22    5.9   319     11.8   900.0    0.00    1045    55.7
 117   10:50   64.6    22    6.0   315     12.3   899.9    0.00    1034    57.3
 117   11:00   65.3    21    5.5     2     17.2   899.7    0.00    1080    58.6
 117   11:10   65.6    20    4.7    31     10.5   899.6    0.00    1087    59.5
 117   11:20   66.3    21    6.7   342     13.3   899.4    0.00    1089    60.2
 117   11:30   66.5    19    5.8   353     12.0   899.4    0.00    1098    60.6
 117   11:40   67.0    19    5.5    33     11.7   899.3    0.00    1103    61.0
 117   11:50   67.5    19    6.0    13     11.9   899.1    0.00    1101    61.3
 117   12:00   68.1    18    5.0    10     12.1   899.1    0.00    1100    62.2
 117   12:10   68.5    18    6.3   354     12.1   899.0    0.00    1098    63.6
 117   12:20   69.2    20    3.0   286      6.3   898.8    0.00    1089    65.1
 117   12:30   69.8    18    4.7   344     10.8   898.7    0.00    1088    66.7
 117   12:40   69.8    18    5.9     6     13.9   898.5    0.00    1078    68.3
 117   12:50   70.9    17    3.9   341      8.6   898.4    0.00    1070    69.6
 117   13:00   71.7    17    5.6   337     11.8   898.3    0.00    1057    70.8
 117   13:10   71.0    16    4.7   348     11.5   898.2    0.00    1042    72.0
 117   13:20   71.3    17    5.8   323     11.5   898.0    0.00    1030    73.0
 117   13:30   72.8    18    3.7   297     15.7   897.8    0.00    1001    74.0
 117   13:40   72.3    16    4.0    18      8.8   897.8    0.00     984    74.9
 117   13:50   72.1    16    3.8     1     11.2   897.7    0.00     963    75.7
 117   14:00   73.9    17    3.3   295      7.8   897.5    0.00     941    76.4
 117   14:10   73.7    16    4.4   310     11.5   897.4    0.00     920    77.0
 117   14:20   74.0    16    5.3   296     12.3   897.2    0.00     894    77.6
 117   14:30   73.1    15    5.4   344     12.0   897.2    0.00     858    78.2
 117   14:40   73.9    15    3.7   329      9.6   897.1    0.00     827    78.6
 117   14:50   73.6    14    3.3    36      8.9   897.1    0.00     804    79.0
 117   15:00   73.7    15    4.7   352      9.6   897.0    0.00     782    79.2
 117   15:10   74.3    15    5.1   334     10.6   896.8    0.00     754    79.4
 117   15:20   74.1    15    4.4   339      9.1   896.8    0.00     726    79.6
 117   15:30   74.2    15    7.0   344     12.1   896.7    0.00     689    79.7
 117   15:40   73.7    14    5.9   358     10.6   896.7    0.00     650    79.7
 117   15:50   74.0    14    5.5   353     12.3   896.6    0.00     616    79.6
 117   16:00   74.1    14    4.3   356      8.5   896.6    0.00     578    79.4
 117   16:10   74.3    14    3.5   316      7.3   896.5    0.00     540    78.9
 117   16:20   74.5    14    3.5   343      6.3   896.5    0.00     501    78.1
 117   16:30   74.3    14    3.7   319      8.3   896.5    0.00     463    77.2
 117   16:40   75.2    14    2.9   346      6.6   896.4    0.00     425    76.3
 117   16:50   74.8    14    3.2   334      6.7   896.3    0.00     380    75.4
 117   17:00   74.9    15    5.0   339     11.5   896.2    0.00     346    74.6
 117   17:10   73.6    16    4.5   360      8.8   896.3    0.00     308    73.8
 117   17:20   73.5    15    4.4   344      7.7   896.3    0.00     275    73.3
 117   17:30   73.4    16    4.2   345      9.0   896.4    0.00     237    72.8
 117   17:40   73.2    15    4.1   339      7.5   896.4    0.00     202    72.4
 117   17:50   73.7    15    2.0   354      4.2   896.5    0.00     164    71.8
 117   18:00   73.8    16    2.1   346      4.7   896.5    0.00     121    71.2
 117   18:10   72.0    17    2.3    30      4.3   896.5    0.00      69    70.7
 117   18:20   70.6    18    2.1   336      4.0   896.6    0.00      26    70.1
 117   18:30   69.8    19    1.1    14      2.1   896.7    0.00      17    69.6
 117   18:40   68.1    22    1.0    25      3.1   896.8    0.00       3    69.1
 117   18:50   66.1    23    1.0    14      2.3   896.9    0.00       0    68.6
 117   19:00   65.6    24    0.7    32      1.2   897.1    0.00       0    68.1
 117   19:10   64.8    26    0.7   318      2.3   897.2    0.00       0    67.5
 117   19:20   64.0    26    0.9    22      2.1   897.3    0.00       0    67.0
 117   19:30   63.6    26    1.2    22      2.3   897.5    0.00       0    66.6
 117   19:40   63.2    27    1.1   347      3.1   897.7    0.00       0    66.1
 117   19:50   64.3    23    1.4    64      5.0   897.7    0.00       0    65.6
 117   20:00   67.0    19    2.0    64      6.1   897.9    0.00       0    65.2
 117   20:10   66.9    19    1.3    78      6.5   898.0    0.00       0    64.8
 117   20:20   67.1    18    3.2    72      8.1   898.0    0.00       0    64.5
 117   20:30   67.6    18    4.4    80      9.8   898.1    0.00       0    64.2
 117   20:40   67.5    18    5.0    72     14.9   898.3    0.00       0    64.0
 117   20:50   67.1    19    3.9    69     10.5   898.4    0.00       0    63.8
 117   21:00   66.7    20    3.8    79      9.7   898.4    0.00       0    63.6
 117   21:10   66.4    20    3.2    71      8.0   898.5    0.00       0    63.4
 117   21:20   65.8    22    2.1    64      7.7   898.6    0.00       0    63.2
 117   21:30   64.8    23    1.8   258      4.7   898.9    0.00       0    63.1
 117   21:40   64.0    24    2.3   291      5.1   899.0    0.00       0    62.9
 117   21:50   62.9    25    2.0   325      4.9   899.0    0.00       0    62.6
 117   22:00   63.3    24    2.1    37      5.0   899.0    0.00       0    62.3
 117   22:10   62.1    25    2.0    21      3.9   899.2    0.00       0    62.1
 117   22:20   61.0    27    1.4    11      3.0   899.3    0.00       0    61.8
 117   22:30   59.6    28    1.6    30      3.1   899.3    0.00       0    61.6
 117   22:40   58.9    29    2.3    13      4.2   899.5    0.00       0    61.3
 117   22:50   59.2    28    2.8    29      5.0   899.5    0.00       0    61.1
 117   23:00   59.3    28    2.7    25      8.4   899.6    0.00       0    60.8
 117   23:10   58.8    30    1.8     5      4.1   899.7    0.00       0    60.6
 117   23:20   57.1    33    1.3   296      2.4   899.7    0.00       0    60.4
 117   23:30   55.1    37    1.0    90      4.5   899.7    0.00       0    60.2
 117   23:40   53.9    39    0.7   106      2.6   899.8    0.00       0    59.9
 117   23:50   52.4    42    0.5   175      2.3   900.0    0.00       0    59.6
 118    0:00   51.7    44    0.6   214      2.4   900.1    0.00       0    59.4
 118    0:10   51.8    44    1.1   230      2.8   900.1    0.00       0    59.1
 118    0:20   52.1    41    1.4    53      4.8   900.1    0.00       0    58.9
 118    0:30   54.7    35    2.1    32      4.5   900.0    0.00       0    58.6
 118    0:40   56.3    31    3.3     9      6.4   900.0    0.00       0    58.4
 118    0:50   55.4    33    2.9     3      4.5   899.9    0.00       0    58.2
 118    1:00   54.3    35    2.4    55      3.9   900.0    0.00       0    58.0
 118    1:10   53.8    35    3.0    32      5.8   899.9    0.00       0    57.8
 118    1:20   54.0    34    2.4    35      4.2   899.9    0.00       0    57.7
 118    1:30   54.3    33    2.7    44      5.4   899.9    0.00       0    57.5
 118    1:40   54.2    34    1.1    53      3.9   900.0    0.00       0    57.4
 118    1:50   52.1    39    0.8   219      2.1   900.1    0.00       0    57.2
 118    2:00   52.3    36    1.7   352      5.1   900.0    0.00       0    57.1
 118    2:10   52.9    35    2.8     2      5.0   900.0    0.00       0    56.9
 118    2:20   52.4    36    2.5    18      4.7   900.1    0.00       0    56.7
 118    2:30   52.5    35    1.9    37      4.5   900.2    0.00       0    56.6
 118    2:40   52.5    36    3.3    24      5.6   900.3    0.00       0    56.4

Return to Alamo, Nevada graphs page.


Western Regional Climate Center,wrcc@dri.edu